sensor_id;sensor_type;location;lat;lon;timestamp;temperature;humidity
4453;DHT22;2239;48.152;11.584;2023-02-15T00:01:27;-0.10;99.90
4453;DHT22;2239;48.152;11.584;2023-02-15T00:03:53;-0.10;99.90
4453;DHT22;2239;48.152;11.584;2023-02-15T00:06:19;-0.20;99.90
4453;DHT22;2239;48.152;11.584;2023-02-15T00:08:44;-0.20;99.90
4453;DHT22;2239;48.152;11.584;2023-02-15T00:11:12;-0.20;99.90
4453;DHT22;2239;48.152;11.584;2023-02-15T00:13:38;-0.30;99.90
4453;DHT22;2239;48.152;11.584;2023-02-15T00:16:11;-0.30;99.90
4453;DHT22;2239;48.152;11.584;2023-02-15T00:18:38;-0.30;99.90
4453;DHT22;2239;48.152;11.584;2023-02-15T00:21:06;-0.40;99.90
4453;DHT22;2239;48.152;11.584;2023-02-15T00:23:32;-0.30;99.90
4453;DHT22;2239;48.152;11.584;2023-02-15T00:26:10;-0.40;99.90
4453;DHT22;2239;48.152;11.584;2023-02-15T00:28:35;-0.50;99.90
4453;DHT22;2239;48.152;11.584;2023-02-15T00:31:11;-0.50;99.90
4453;DHT22;2239;48.152;11.584;2023-02-15T00:33:38;-0.50;99.90
4453;DHT22;2239;48.152;11.584;2023-02-15T00:36:06;-0.50;99.90
4453;DHT22;2239;48.152;11.584;2023-02-15T00:38:33;-0.40;99.90
4453;DHT22;2239;48.152;11.584;2023-02-15T00:41:00;-0.40;99.90
4453;DHT22;2239;48.152;11.584;2023-02-15T00:43:26;-0.50;99.90
4453;DHT22;2239;48.152;11.584;2023-02-15T00:45:52;-0.50;99.90
4453;DHT22;2239;48.152;11.584;2023-02-15T00:48:19;-0.60;99.90
4453;DHT22;2239;48.152;11.584;2023-02-15T00:50:46;-0.60;99.90
4453;DHT22;2239;48.152;11.584;2023-02-15T00:53:12;-0.70;99.90
4453;DHT22;2239;48.152;11.584;2023-02-15T00:55:38;-0.70;99.90
4453;DHT22;2239;48.152;11.584;2023-02-15T00:58:05;-0.70;99.90
4453;DHT22;2239;48.152;11.584;2023-02-15T01:00:31;-0.80;99.90
4453;DHT22;2239;48.152;11.584;2023-02-15T01:02:57;-0.70;99.90
4453;DHT22;2239;48.152;11.584;2023-02-15T01:05:22;-0.70;99.90
4453;DHT22;2239;48.152;11.584;2023-02-15T01:07:48;-0.80;99.90
4453;DHT22;2239;48.152;11.584;2023-02-15T01:10:14;-0.80;99.90
4453;DHT22;2239;48.152;11.584;2023-02-15T01:12:40;-0.80;99.90
4453;DHT22;2239;48.152;11.584;2023-02-15T01:15:06;-0.80;99.90
4453;DHT22;2239;48.152;11.584;2023-02-15T01:17:32;-0.70;99.90
4453;DHT22;2239;48.152;11.584;2023-02-15T01:19:57;-0.80;99.90
4453;DHT22;2239;48.152;11.584;2023-02-15T01:22:24;-0.80;99.90
4453;DHT22;2239;48.152;11.584;2023-02-15T01:24:50;-0.90;99.90
4453;DHT22;2239;48.152;11.584;2023-02-15T01:27:16;-0.90;99.90
4453;DHT22;2239;48.152;11.584;2023-02-15T01:29:41;-0.90;99.90
4453;DHT22;2239;48.152;11.584;2023-02-15T01:32:07;-0.90;99.90
4453;DHT22;2239;48.152;11.584;2023-02-15T01:34:32;-1.00;99.90
4453;DHT22;2239;48.152;11.584;2023-02-15T01:36:58;-1.00;99.90
4453;DHT22;2239;48.152;11.584;2023-02-15T01:39:23;-1.00;99.90
4453;DHT22;2239;48.152;11.584;2023-02-15T01:41:49;-1.00;99.90
4453;DHT22;2239;48.152;11.584;2023-02-15T01:50:12;-1.00;99.90
4453;DHT22;2239;48.152;11.584;2023-02-15T01:52:49;-0.90;99.90
4453;DHT22;2239;48.152;11.584;2023-02-15T01:55:15;-1.00;99.90
4453;DHT22;2239;48.152;11.584;2023-02-15T01:57:42;-1.00;99.90
4453;DHT22;2239;48.152;11.584;2023-02-15T02:00:09;-1.00;99.90
4453;DHT22;2239;48.152;11.584;2023-02-15T02:02:34;-1.00;99.90
4453;DHT22;2239;48.152;11.584;2023-02-15T02:05:03;-1.10;99.90
4453;DHT22;2239;48.152;11.584;2023-02-15T02:07:39;-1.20;99.90
4453;DHT22;2239;48.152;11.584;2023-02-15T02:10:08;-1.40;99.90
4453;DHT22;2239;48.152;11.584;2023-02-15T02:12:35;-1.40;99.90
4453;DHT22;2239;48.152;11.584;2023-02-15T02:15:02;-1.40;99.90
4453;DHT22;2239;48.152;11.584;2023-02-15T02:20:42;-1.50;99.90
4453;DHT22;2239;48.152;11.584;2023-02-15T02:37:13;-1.20;99.90
4453;DHT22;2239;48.152;11.584;2023-02-15T02:39:49;-1.20;99.90
4453;DHT22;2239;48.152;11.584;2023-02-15T02:42:31;-1.20;99.90
4453;DHT22;2239;48.152;11.584;2023-02-15T02:45:09;-1.20;99.90
4453;DHT22;2239;48.152;11.584;2023-02-15T02:47:48;-1.20;99.90
4453;DHT22;2239;48.152;11.584;2023-02-15T02:50:17;-1.20;99.90
4453;DHT22;2239;48.152;11.584;2023-02-15T03:03:26;-1.20;99.90
4453;DHT22;2239;48.152;11.584;2023-02-15T03:05:59;-1.20;99.90
4453;DHT22;2239;48.152;11.584;2023-02-15T03:08:29;-1.00;99.90
4453;DHT22;2239;48.152;11.584;2023-02-15T03:10:59;-0.90;99.90
4453;DHT22;2239;48.152;11.584;2023-02-15T03:13:26;-0.70;99.90
4453;DHT22;2239;48.152;11.584;2023-02-15T03:15:52;-0.60;99.90
4453;DHT22;2239;48.152;11.584;2023-02-15T03:18:41;-0.70;99.90
4453;DHT22;2239;48.152;11.584;2023-02-15T03:21:09;-0.70;99.90
4453;DHT22;2239;48.152;11.584;2023-02-15T03:23:52;-0.70;99.90
4453;DHT22;2239;48.152;11.584;2023-02-15T03:26:20;-0.70;99.90
4453;DHT22;2239;48.152;11.584;2023-02-15T03:28:48;-0.70;99.90
4453;DHT22;2239;48.152;11.584;2023-02-15T03:31:16;-0.70;99.90
4453;DHT22;2239;48.152;11.584;2023-02-15T03:34:00;-0.80;99.90
4453;DHT22;2239;48.152;11.584;2023-02-15T03:39:19;-0.70;99.90
4453;DHT22;2239;48.152;11.584;2023-02-15T03:42:13;-0.60;99.90
4453;DHT22;2239;48.152;11.584;2023-02-15T03:44:48;-0.70;99.90
4453;DHT22;2239;48.152;11.584;2023-02-15T03:47:18;-0.70;99.90
4453;DHT22;2239;48.152;11.584;2023-02-15T03:50:00;-0.60;99.90
4453;DHT22;2239;48.152;11.584;2023-02-15T03:52:28;-0.70;99.90
4453;DHT22;2239;48.152;11.584;2023-02-15T03:54:55;-0.80;99.90
4453;DHT22;2239;48.152;11.584;2023-02-15T03:57:26;-0.80;99.90
4453;DHT22;2239;48.152;11.584;2023-02-15T04:00:21;-0.80;99.90
4453;DHT22;2239;48.152;11.584;2023-02-15T04:03:18;-0.80;99.90
4453;DHT22;2239;48.152;11.584;2023-02-15T04:05:46;-0.70;99.90
4453;DHT22;2239;48.152;11.584;2023-02-15T04:08:12;-0.70;99.90
4453;DHT22;2239;48.152;11.584;2023-02-15T04:10:38;-0.70;99.90
4453;DHT22;2239;48.152;11.584;2023-02-15T04:13:22;-0.70;99.90
4453;DHT22;2239;48.152;11.584;2023-02-15T04:15:48;-0.80;99.90
4453;DHT22;2239;48.152;11.584;2023-02-15T04:18:30;-0.80;99.90
4453;DHT22;2239;48.152;11.584;2023-02-15T04:21:15;-0.80;99.90
4453;DHT22;2239;48.152;11.584;2023-02-15T04:23:59;-0.70;99.90
4453;DHT22;2239;48.152;11.584;2023-02-15T04:26:44;-0.70;99.90
4453;DHT22;2239;48.152;11.584;2023-02-15T04:29:09;-0.70;99.90
4453;DHT22;2239;48.152;11.584;2023-02-15T04:31:35;-0.60;99.90
4453;DHT22;2239;48.152;11.584;2023-02-15T04:34:00;-0.60;99.90
4453;DHT22;2239;48.152;11.584;2023-02-15T04:36:26;-0.60;99.90
4453;DHT22;2239;48.152;11.584;2023-02-15T04:38:51;-0.60;99.90
4453;DHT22;2239;48.152;11.584;2023-02-15T04:41:17;-0.60;99.90
4453;DHT22;2239;48.152;11.584;2023-02-15T04:43:42;-0.60;99.90
4453;DHT22;2239;48.152;11.584;2023-02-15T04:46:08;-0.60;99.90
4453;DHT22;2239;48.152;11.584;2023-02-15T04:48:33;-0.60;99.90
4453;DHT22;2239;48.152;11.584;2023-02-15T04:50:59;-0.50;99.90
4453;DHT22;2239;48.152;11.584;2023-02-15T04:53:25;-0.50;99.90
4453;DHT22;2239;48.152;11.584;2023-02-15T04:55:50;-0.50;99.90
4453;DHT22;2239;48.152;11.584;2023-02-15T04:58:16;-0.60;99.90
4453;DHT22;2239;48.152;11.584;2023-02-15T05:00:41;-0.60;99.90
4453;DHT22;2239;48.152;11.584;2023-02-15T05:03:07;-0.60;99.90
4453;DHT22;2239;48.152;11.584;2023-02-15T05:05:32;-0.60;99.90
4453;DHT22;2239;48.152;11.584;2023-02-15T05:07:58;-0.60;99.90
4453;DHT22;2239;48.152;11.584;2023-02-15T05:10:23;-0.60;99.90
4453;DHT22;2239;48.152;11.584;2023-02-15T05:12:49;-0.50;99.90
4453;DHT22;2239;48.152;11.584;2023-02-15T05:15:14;-0.40;99.90
4453;DHT22;2239;48.152;11.584;2023-02-15T05:17:40;-0.40;99.90
4453;DHT22;2239;48.152;11.584;2023-02-15T05:20:06;-0.30;99.90
4453;DHT22;2239;48.152;11.584;2023-02-15T05:22:31;-0.40;99.90
4453;DHT22;2239;48.152;11.584;2023-02-15T05:24:57;-0.30;99.90
4453;DHT22;2239;48.152;11.584;2023-02-15T05:27:41;-0.30;99.90
4453;DHT22;2239;48.152;11.584;2023-02-15T05:30:25;-0.40;99.90
4453;DHT22;2239;48.152;11.584;2023-02-15T05:32:51;-0.40;99.90
4453;DHT22;2239;48.152;11.584;2023-02-15T05:35:18;-0.50;99.90
4453;DHT22;2239;48.152;11.584;2023-02-15T05:37:43;-0.50;99.90
4453;DHT22;2239;48.152;11.584;2023-02-15T05:40:09;-0.50;99.90
4453;DHT22;2239;48.152;11.584;2023-02-15T05:42:35;-0.50;99.90
4453;DHT22;2239;48.152;11.584;2023-02-15T05:45:00;-0.50;99.90
4453;DHT22;2239;48.152;11.584;2023-02-15T05:47:26;-0.50;99.90
4453;DHT22;2239;48.152;11.584;2023-02-15T05:49:52;-0.50;99.90
4453;DHT22;2239;48.152;11.584;2023-02-15T05:52:17;-0.40;99.90
4453;DHT22;2239;48.152;11.584;2023-02-15T05:54:43;-0.40;99.90
4453;DHT22;2239;48.152;11.584;2023-02-15T05:57:08;-0.50;99.90
4453;DHT22;2239;48.152;11.584;2023-02-15T05:59:34;-0.40;99.90
4453;DHT22;2239;48.152;11.584;2023-02-15T06:01:59;-0.40;99.90
4453;DHT22;2239;48.152;11.584;2023-02-15T06:04:25;-0.40;99.90
4453;DHT22;2239;48.152;11.584;2023-02-15T06:06:50;-0.40;99.90
4453;DHT22;2239;48.152;11.584;2023-02-15T06:09:16;-0.50;99.90
4453;DHT22;2239;48.152;11.584;2023-02-15T06:11:44;-0.60;99.90
4453;DHT22;2239;48.152;11.584;2023-02-15T06:14:10;-0.40;99.90
4453;DHT22;2239;48.152;11.584;2023-02-15T06:16:35;-0.40;99.90
4453;DHT22;2239;48.152;11.584;2023-02-15T06:19:02;-0.50;99.90
4453;DHT22;2239;48.152;11.584;2023-02-15T06:21:28;-0.50;99.90
4453;DHT22;2239;48.152;11.584;2023-02-15T06:23:54;-0.50;99.90
4453;DHT22;2239;48.152;11.584;2023-02-15T06:26:19;-0.50;99.90
4453;DHT22;2239;48.152;11.584;2023-02-15T06:28:45;-0.50;99.90
4453;DHT22;2239;48.152;11.584;2023-02-15T06:31:10;-0.60;99.90
4453;DHT22;2239;48.152;11.584;2023-02-15T06:33:36;-0.60;99.90
4453;DHT22;2239;48.152;11.584;2023-02-15T06:36:02;-0.60;99.90
4453;DHT22;2239;48.152;11.584;2023-02-15T06:38:29;-0.60;99.90
4453;DHT22;2239;48.152;11.584;2023-02-15T06:40:55;-0.60;99.90
4453;DHT22;2239;48.152;11.584;2023-02-15T06:43:20;-0.60;99.90
4453;DHT22;2239;48.152;11.584;2023-02-15T06:45:46;-0.10;99.90
4453;DHT22;2239;48.152;11.584;2023-02-15T06:48:12;-0.10;99.90
4453;DHT22;2239;48.152;11.584;2023-02-15T06:50:37;-0.20;99.90
4453;DHT22;2239;48.152;11.584;2023-02-15T06:53:03;-0.20;99.90
4453;DHT22;2239;48.152;11.584;2023-02-15T06:55:29;-0.30;99.90
4453;DHT22;2239;48.152;11.584;2023-02-15T06:57:54;-0.40;99.90
4453;DHT22;2239;48.152;11.584;2023-02-15T07:00:20;-0.40;99.90
4453;DHT22;2239;48.152;11.584;2023-02-15T07:02:47;-0.30;99.90
4453;DHT22;2239;48.152;11.584;2023-02-15T07:05:13;-0.30;99.90
4453;DHT22;2239;48.152;11.584;2023-02-15T07:07:38;-0.30;99.90
4453;DHT22;2239;48.152;11.584;2023-02-15T07:10:04;-0.20;99.90
4453;DHT22;2239;48.152;11.584;2023-02-15T07:12:30;-0.30;99.90
4453;DHT22;2239;48.152;11.584;2023-02-15T07:15:10;-0.20;99.90
4453;DHT22;2239;48.152;11.584;2023-02-15T07:17:36;-0.20;99.90
4453;DHT22;2239;48.152;11.584;2023-02-15T07:20:10;-0.20;99.90
4453;DHT22;2239;48.152;11.584;2023-02-15T07:22:36;-0.20;99.90
4453;DHT22;2239;48.152;11.584;2023-02-15T07:25:07;-0.10;99.90
4453;DHT22;2239;48.152;11.584;2023-02-15T07:27:33;-0.10;99.90
4453;DHT22;2239;48.152;11.584;2023-02-15T07:30:00;0.10;99.90
4453;DHT22;2239;48.152;11.584;2023-02-15T07:32:30;0.00;99.90
4453;DHT22;2239;48.152;11.584;2023-02-15T07:34:56;0.10;99.90
4453;DHT22;2239;48.152;11.584;2023-02-15T07:37:22;0.20;99.90
4453;DHT22;2239;48.152;11.584;2023-02-15T07:39:47;0.20;99.90
4453;DHT22;2239;48.152;11.584;2023-02-15T07:42:13;0.20;99.90
4453;DHT22;2239;48.152;11.584;2023-02-15T07:44:38;0.20;99.90
4453;DHT22;2239;48.152;11.584;2023-02-15T07:47:04;0.20;99.90
4453;DHT22;2239;48.152;11.584;2023-02-15T07:49:30;0.20;99.90
4453;DHT22;2239;48.152;11.584;2023-02-15T07:51:55;0.20;99.90
4453;DHT22;2239;48.152;11.584;2023-02-15T07:54:21;0.20;99.90
4453;DHT22;2239;48.152;11.584;2023-02-15T07:56:46;0.10;99.90
4453;DHT22;2239;48.152;11.584;2023-02-15T07:59:12;0.10;99.90
4453;DHT22;2239;48.152;11.584;2023-02-15T08:01:39;0.20;99.90
4453;DHT22;2239;48.152;11.584;2023-02-15T08:04:06;0.20;99.90
4453;DHT22;2239;48.152;11.584;2023-02-15T08:06:34;0.20;99.90
4453;DHT22;2239;48.152;11.584;2023-02-15T08:09:00;0.20;99.90
4453;DHT22;2239;48.152;11.584;2023-02-15T08:11:32;0.30;99.90
4453;DHT22;2239;48.152;11.584;2023-02-15T08:14:10;0.20;99.90
4453;DHT22;2239;48.152;11.584;2023-02-15T08:16:42;0.30;99.90
4453;DHT22;2239;48.152;11.584;2023-02-15T08:19:20;0.20;99.90
4453;DHT22;2239;48.152;11.584;2023-02-15T08:21:54;0.20;99.90
4453;DHT22;2239;48.152;11.584;2023-02-15T08:24:22;0.10;99.90
4453;DHT22;2239;48.152;11.584;2023-02-15T08:26:48;0.10;99.90
4453;DHT22;2239;48.152;11.584;2023-02-15T08:29:15;0.30;99.90
4453;DHT22;2239;48.152;11.584;2023-02-15T08:31:43;0.40;99.90
4453;DHT22;2239;48.152;11.584;2023-02-15T08:34:11;0.40;99.90
4453;DHT22;2239;48.152;11.584;2023-02-15T08:36:37;0.50;99.90
4453;DHT22;2239;48.152;11.584;2023-02-15T08:39:04;0.60;99.90
4453;DHT22;2239;48.152;11.584;2023-02-15T08:41:35;0.70;99.90
4453;DHT22;2239;48.152;11.584;2023-02-15T08:44:04;0.60;99.90
4453;DHT22;2239;48.152;11.584;2023-02-15T08:46:32;0.60;99.90
4453;DHT22;2239;48.152;11.584;2023-02-15T08:48:59;0.70;99.90
4453;DHT22;2239;48.152;11.584;2023-02-15T08:51:27;0.80;99.90
4453;DHT22;2239;48.152;11.584;2023-02-15T08:53:58;0.80;99.90
4453;DHT22;2239;48.152;11.584;2023-02-15T08:56:27;0.90;99.90
4453;DHT22;2239;48.152;11.584;2023-02-15T08:58:53;1.20;99.90
4453;DHT22;2239;48.152;11.584;2023-02-15T09:01:22;1.60;99.90
4453;DHT22;2239;48.152;11.584;2023-02-15T09:03:50;2.40;99.90
4453;DHT22;2239;48.152;11.584;2023-02-15T09:06:18;2.90;99.90
4453;DHT22;2239;48.152;11.584;2023-02-15T09:08:44;3.60;99.90
4453;DHT22;2239;48.152;11.584;2023-02-15T09:13:38;4.10;99.90
4453;DHT22;2239;48.152;11.584;2023-02-15T09:16:06;4.50;99.90
4453;DHT22;2239;48.152;11.584;2023-02-15T09:18:35;4.90;99.90
4453;DHT22;2239;48.152;11.584;2023-02-15T09:21:14;5.70;99.90
4453;DHT22;2239;48.152;11.584;2023-02-15T09:23:40;6.70;99.90
4453;DHT22;2239;48.152;11.584;2023-02-15T09:26:17;6.60;99.90
4453;DHT22;2239;48.152;11.584;2023-02-15T09:28:43;6.50;99.90
4453;DHT22;2239;48.152;11.584;2023-02-15T09:31:12;6.60;99.90
4453;DHT22;2239;48.152;11.584;2023-02-15T09:33:39;6.60;99.60
4453;DHT22;2239;48.152;11.584;2023-02-15T09:36:13;6.70;99.10
4453;DHT22;2239;48.152;11.584;2023-02-15T09:38:39;6.80;99.20
4453;DHT22;2239;48.152;11.584;2023-02-15T09:41:32;6.90;99.20
4453;DHT22;2239;48.152;11.584;2023-02-15T09:55:23;7.90;96.10
4453;DHT22;2239;48.152;11.584;2023-02-15T10:00:36;7.60;98.10
4453;DHT22;2239;48.152;11.584;2023-02-15T10:03:16;8.10;99.10
4453;DHT22;2239;48.152;11.584;2023-02-15T10:14:18;9.10;94.80
4453;DHT22;2239;48.152;11.584;2023-02-15T10:19:42;9.50;95.00
4453;DHT22;2239;48.152;11.584;2023-02-15T10:27:49;9.00;95.60
4453;DHT22;2239;48.152;11.584;2023-02-15T10:30:17;8.70;95.60
4453;DHT22;2239;48.152;11.584;2023-02-15T10:32:49;8.70;96.20
4453;DHT22;2239;48.152;11.584;2023-02-15T10:35:25;8.70;96.30
4453;DHT22;2239;48.152;11.584;2023-02-15T10:38:13;9.10;96.20
4453;DHT22;2239;48.152;11.584;2023-02-15T10:46:19;10.20;93.60
4453;DHT22;2239;48.152;11.584;2023-02-15T10:49:10;10.10;93.10
4453;DHT22;2239;48.152;11.584;2023-02-15T10:54:37;10.10;92.90
4453;DHT22;2239;48.152;11.584;2023-02-15T10:57:27;9.90;93.90
4453;DHT22;2239;48.152;11.584;2023-02-15T11:08:16;11.60;91.30
4453;DHT22;2239;48.152;11.584;2023-02-15T11:10:54;11.40;90.50
4453;DHT22;2239;48.152;11.584;2023-02-15T11:13:23;11.10;91.60
4453;DHT22;2239;48.152;11.584;2023-02-15T11:20:59;10.80;92.00
4453;DHT22;2239;48.152;11.584;2023-02-15T11:23:27;10.60;91.90
4453;DHT22;2239;48.152;11.584;2023-02-15T11:26:01;10.60;91.80
4453;DHT22;2239;48.152;11.584;2023-02-15T11:28:41;10.60;92.20
4453;DHT22;2239;48.152;11.584;2023-02-15T11:31:18;10.60;92.10
4453;DHT22;2239;48.152;11.584;2023-02-15T11:33:51;10.70;92.20
4453;DHT22;2239;48.152;11.584;2023-02-15T11:36:27;10.80;91.40
4453;DHT22;2239;48.152;11.584;2023-02-15T11:38:59;11.10;91.70
4453;DHT22;2239;48.152;11.584;2023-02-15T11:41:29;11.30;91.70
4453;DHT22;2239;48.152;11.584;2023-02-15T11:44:10;11.90;91.30
4453;DHT22;2239;48.152;11.584;2023-02-15T11:46:37;12.30;90.50
4453;DHT22;2239;48.152;11.584;2023-02-15T11:49:20;12.20;89.60
4453;DHT22;2239;48.152;11.584;2023-02-15T11:51:46;12.20;90.10
4453;DHT22;2239;48.152;11.584;2023-02-15T11:54:12;12.30;89.50
4453;DHT22;2239;48.152;11.584;2023-02-15T11:56:37;12.30;89.20
4453;DHT22;2239;48.152;11.584;2023-02-15T11:59:11;12.50;90.50
4453;DHT22;2239;48.152;11.584;2023-02-15T12:01:44;12.50;89.40
4453;DHT22;2239;48.152;11.584;2023-02-15T12:04:38;12.20;89.00
4453;DHT22;2239;48.152;11.584;2023-02-15T12:07:17;11.90;90.40
4453;DHT22;2239;48.152;11.584;2023-02-15T12:10:03;11.60;90.80
4453;DHT22;2239;48.152;11.584;2023-02-15T12:12:37;11.50;91.40
4453;DHT22;2239;48.152;11.584;2023-02-15T12:15:08;11.50;90.90
4453;DHT22;2239;48.152;11.584;2023-02-15T12:17:51;11.60;91.70
4453;DHT22;2239;48.152;11.584;2023-02-15T12:22:50;12.30;89.80
4453;DHT22;2239;48.152;11.584;2023-02-15T12:25:33;12.60;89.10
4453;DHT22;2239;48.152;11.584;2023-02-15T12:28:00;12.80;89.00
4453;DHT22;2239;48.152;11.584;2023-02-15T12:30:32;12.60;89.20
4453;DHT22;2239;48.152;11.584;2023-02-15T12:35:39;12.50;88.70
4453;DHT22;2239;48.152;11.584;2023-02-15T12:40:37;12.70;90.10
4453;DHT22;2239;48.152;11.584;2023-02-15T12:43:03;12.60;88.50
4453;DHT22;2239;48.152;11.584;2023-02-15T12:45:36;12.40;88.90
4453;DHT22;2239;48.152;11.584;2023-02-15T12:50:40;12.10;90.60
4453;DHT22;2239;48.152;11.584;2023-02-15T12:53:18;12.40;90.10
4453;DHT22;2239;48.152;11.584;2023-02-15T12:55:59;12.30;89.50
4453;DHT22;2239;48.152;11.584;2023-02-15T12:58:28;11.90;90.10
4453;DHT22;2239;48.152;11.584;2023-02-15T13:01:08;11.60;90.60
4453;DHT22;2239;48.152;11.584;2023-02-15T13:03:38;11.40;91.10
4453;DHT22;2239;48.152;11.584;2023-02-15T13:06:05;11.20;91.50
4453;DHT22;2239;48.152;11.584;2023-02-15T13:08:39;11.10;91.70
4453;DHT22;2239;48.152;11.584;2023-02-15T13:11:11;11.00;92.20
4453;DHT22;2239;48.152;11.584;2023-02-15T13:13:58;11.00;92.80
4453;DHT22;2239;48.152;11.584;2023-02-15T13:16:39;11.00;92.30
4453;DHT22;2239;48.152;11.584;2023-02-15T13:19:10;10.80;93.00
4453;DHT22;2239;48.152;11.584;2023-02-15T13:21:40;11.00;93.20
4453;DHT22;2239;48.152;11.584;2023-02-15T13:24:27;11.40;92.90
4453;DHT22;2239;48.152;11.584;2023-02-15T13:26:56;11.70;92.50
4453;DHT22;2239;48.152;11.584;2023-02-15T13:29:27;11.70;92.00
4453;DHT22;2239;48.152;11.584;2023-02-15T13:31:55;11.80;92.60
4453;DHT22;2239;48.152;11.584;2023-02-15T13:34:36;11.70;91.80
4453;DHT22;2239;48.152;11.584;2023-02-15T13:37:15;11.90;92.20
4453;DHT22;2239;48.152;11.584;2023-02-15T13:39:58;11.90;92.30
4453;DHT22;2239;48.152;11.584;2023-02-15T13:45:15;11.20;92.60
4453;DHT22;2239;48.152;11.584;2023-02-15T13:50:53;11.30;93.20
4453;DHT22;2239;48.152;11.584;2023-02-15T13:53:47;11.10;92.90
4453;DHT22;2239;48.152;11.584;2023-02-15T14:19:43;10.40;94.20
4453;DHT22;2239;48.152;11.584;2023-02-15T14:22:44;10.60;94.00
4453;DHT22;2239;48.152;11.584;2023-02-15T14:25:38;10.80;93.80
4453;DHT22;2239;48.152;11.584;2023-02-15T14:28:13;11.00;93.40
4453;DHT22;2239;48.152;11.584;2023-02-15T14:30:44;10.80;93.80
4453;DHT22;2239;48.152;11.584;2023-02-15T14:33:34;10.60;93.60
4453;DHT22;2239;48.152;11.584;2023-02-15T14:36:05;10.50;93.90
4453;DHT22;2239;48.152;11.584;2023-02-15T14:47:00;10.30;95.40
4453;DHT22;2239;48.152;11.584;2023-02-15T14:49:36;10.10;95.00
4453;DHT22;2239;48.152;11.584;2023-02-15T14:52:07;10.20;95.80
4453;DHT22;2239;48.152;11.584;2023-02-15T15:04:42;9.60;96.20
4453;DHT22;2239;48.152;11.584;2023-02-15T15:07:20;9.70;96.80
4453;DHT22;2239;48.152;11.584;2023-02-15T15:12:52;9.70;96.00
4453;DHT22;2239;48.152;11.584;2023-02-15T15:18:10;9.60;96.60
4453;DHT22;2239;48.152;11.584;2023-02-15T15:20:41;9.80;96.60
4453;DHT22;2239;48.152;11.584;2023-02-15T15:26:20;9.60;96.20
4453;DHT22;2239;48.152;11.584;2023-02-15T15:34:18;10.10;96.30
4453;DHT22;2239;48.152;11.584;2023-02-15T15:39:44;10.20;95.80
4453;DHT22;2239;48.152;11.584;2023-02-15T15:50:25;9.20;97.10
4453;DHT22;2239;48.152;11.584;2023-02-15T15:52:57;8.90;97.40
4453;DHT22;2239;48.152;11.584;2023-02-15T15:55:26;8.50;98.10
4453;DHT22;2239;48.152;11.584;2023-02-15T15:58:02;8.00;99.00
4453;DHT22;2239;48.152;11.584;2023-02-15T16:00:41;7.60;99.90
4453;DHT22;2239;48.152;11.584;2023-02-15T16:03:36;7.30;99.90
4453;DHT22;2239;48.152;11.584;2023-02-15T16:06:01;7.10;99.90
4453;DHT22;2239;48.152;11.584;2023-02-15T16:08:32;6.90;99.90
4453;DHT22;2239;48.152;11.584;2023-02-15T16:10:58;6.70;99.90
4453;DHT22;2239;48.152;11.584;2023-02-15T16:13:25;6.50;99.90
4453;DHT22;2239;48.152;11.584;2023-02-15T16:15:55;6.20;99.90
4453;DHT22;2239;48.152;11.584;2023-02-15T16:18:26;5.90;99.90
4453;DHT22;2239;48.152;11.584;2023-02-15T16:20:55;5.60;99.90
4453;DHT22;2239;48.152;11.584;2023-02-15T16:28:59;5.00;99.90
4453;DHT22;2239;48.152;11.584;2023-02-15T16:31:24;5.00;99.90
4453;DHT22;2239;48.152;11.584;2023-02-15T16:33:53;4.90;99.90
4453;DHT22;2239;48.152;11.584;2023-02-15T16:36:25;4.80;99.90
4453;DHT22;2239;48.152;11.584;2023-02-15T16:41:21;4.60;99.90
4453;DHT22;2239;48.152;11.584;2023-02-15T16:43:49;4.60;99.90
4453;DHT22;2239;48.152;11.584;2023-02-15T16:46:18;4.40;99.90
4453;DHT22;2239;48.152;11.584;2023-02-15T16:48:48;4.20;99.90
4453;DHT22;2239;48.152;11.584;2023-02-15T16:51:25;4.00;99.90
4453;DHT22;2239;48.152;11.584;2023-02-15T16:53:52;3.90;99.90
4453;DHT22;2239;48.152;11.584;2023-02-15T16:56:24;3.80;99.90
4453;DHT22;2239;48.152;11.584;2023-02-15T16:58:51;3.70;99.90
4453;DHT22;2239;48.152;11.584;2023-02-15T17:01:20;3.70;99.90
4453;DHT22;2239;48.152;11.584;2023-02-15T17:03:50;3.40;99.90
4453;DHT22;2239;48.152;11.584;2023-02-15T17:06:23;3.30;99.90
4453;DHT22;2239;48.152;11.584;2023-02-15T17:08:52;3.10;99.90
4453;DHT22;2239;48.152;11.584;2023-02-15T17:11:32;3.00;99.90
4453;DHT22;2239;48.152;11.584;2023-02-15T17:16:45;2.90;99.90
4453;DHT22;2239;48.152;11.584;2023-02-15T17:19:21;2.90;99.90
4453;DHT22;2239;48.152;11.584;2023-02-15T17:21:56;2.80;99.90
4453;DHT22;2239;48.152;11.584;2023-02-15T17:24:35;2.90;99.90
4453;DHT22;2239;48.152;11.584;2023-02-15T17:27:05;2.90;99.90
4453;DHT22;2239;48.152;11.584;2023-02-15T17:29:36;3.00;99.90
4453;DHT22;2239;48.152;11.584;2023-02-15T17:32:03;3.00;99.90
4453;DHT22;2239;48.152;11.584;2023-02-15T17:34:46;3.10;99.90
4453;DHT22;2239;48.152;11.584;2023-02-15T17:37:14;3.20;99.90
4453;DHT22;2239;48.152;11.584;2023-02-15T17:39:47;3.20;99.90
4453;DHT22;2239;48.152;11.584;2023-02-15T17:42:13;3.10;99.90
4453;DHT22;2239;48.152;11.584;2023-02-15T17:44:38;3.20;99.90
4453;DHT22;2239;48.152;11.584;2023-02-15T17:47:04;3.20;99.90
4453;DHT22;2239;48.152;11.584;2023-02-15T17:49:30;3.30;99.90
4453;DHT22;2239;48.152;11.584;2023-02-15T17:52:00;3.30;99.90
4453;DHT22;2239;48.152;11.584;2023-02-15T17:54:27;3.30;99.90
4453;DHT22;2239;48.152;11.584;2023-02-15T17:57:13;3.30;99.90
4453;DHT22;2239;48.152;11.584;2023-02-15T17:59:38;3.30;99.90
4453;DHT22;2239;48.152;11.584;2023-02-15T18:02:23;3.20;99.90
4453;DHT22;2239;48.152;11.584;2023-02-15T18:05:13;3.00;99.90
4453;DHT22;2239;48.152;11.584;2023-02-15T18:07:58;2.90;99.90
4453;DHT22;2239;48.152;11.584;2023-02-15T18:10:43;2.90;99.90
4453;DHT22;2239;48.152;11.584;2023-02-15T18:13:27;2.80;99.90
4453;DHT22;2239;48.152;11.584;2023-02-15T18:15:52;2.80;99.90
4453;DHT22;2239;48.152;11.584;2023-02-15T18:18:19;2.80;99.90
4453;DHT22;2239;48.152;11.584;2023-02-15T18:20:46;2.70;99.90
4453;DHT22;2239;48.152;11.584;2023-02-15T18:23:13;2.80;99.90
4453;DHT22;2239;48.152;11.584;2023-02-15T18:25:39;2.90;99.90
4453;DHT22;2239;48.152;11.584;2023-02-15T18:28:05;2.90;99.90
4453;DHT22;2239;48.152;11.584;2023-02-15T18:30:31;2.90;99.90
4453;DHT22;2239;48.152;11.584;2023-02-15T18:32:58;2.80;99.90
4453;DHT22;2239;48.152;11.584;2023-02-15T18:35:29;2.60;99.90
4453;DHT22;2239;48.152;11.584;2023-02-15T18:37:56;2.60;99.90
4453;DHT22;2239;48.152;11.584;2023-02-15T18:40:25;2.50;99.90
4453;DHT22;2239;48.152;11.584;2023-02-15T18:42:51;2.60;99.90
4453;DHT22;2239;48.152;11.584;2023-02-15T18:45:22;2.50;99.90
4453;DHT22;2239;48.152;11.584;2023-02-15T18:47:49;2.50;99.90
4453;DHT22;2239;48.152;11.584;2023-02-15T18:50:17;2.50;99.90
4453;DHT22;2239;48.152;11.584;2023-02-15T18:52:48;2.50;99.90
4453;DHT22;2239;48.152;11.584;2023-02-15T18:55:21;2.50;99.90
4453;DHT22;2239;48.152;11.584;2023-02-15T18:57:49;2.60;99.90
4453;DHT22;2239;48.152;11.584;2023-02-15T19:00:16;2.60;99.90
4453;DHT22;2239;48.152;11.584;2023-02-15T19:02:42;2.60;99.90
4453;DHT22;2239;48.152;11.584;2023-02-15T19:05:08;2.40;99.90
4453;DHT22;2239;48.152;11.584;2023-02-15T19:07:34;2.30;99.90
4453;DHT22;2239;48.152;11.584;2023-02-15T19:10:00;2.30;99.90
4453;DHT22;2239;48.152;11.584;2023-02-15T19:12:29;2.30;99.90
4453;DHT22;2239;48.152;11.584;2023-02-15T19:14:54;2.40;99.90
4453;DHT22;2239;48.152;11.584;2023-02-15T19:17:22;2.40;99.90
4453;DHT22;2239;48.152;11.584;2023-02-15T19:19:49;2.50;99.90